EW7001 Weather Reports


Display with metric or nautical units.
time (UTC)temp
F
wind
direction
speed
MPH
gust
MPH
rain 1hr
in
rain 24hr
in
rain mn
in
humidity
%
barometer
mb
20191018104548 44 329 0.0 2.0 0.00 0.00 0.00 69 995.1
20191018103119 45 19 0.0 0.0 0.00 0.00 0.00 67 994.3
20191018101556 46 17 0.0 0.0 0.00 0.00 0.00 65 994.0
20191018100113 46 360 0.0 0.0 0.00 0.00 0.00 62 994.1
20191018094603 47 335 0.0 1.0 0.00 0.00 0.00 59 994.3
20191018093037 48 332 0.0 0.0 0.00 0.00 0.00 58 994.0
20191018091525 48 355 0.0 0.0 0.00 0.00 0.00 55 994.1
20191018084515 49 350 0.0 1.0 0.00 0.00 0.00 53 994.0
20191018083011 50 342 0.0 0.0 0.00 0.00 0.00 51 993.9
20191018081504 51 321 0.0 0.0 0.00 0.00 0.00 48 993.7
20191018080223 52 327 0.0 0.0 0.00 0.00 0.00 45 993.4
20191018074749 54 336 0.0 0.0 0.00 0.00 0.00 42 993.1
20191018073159 55 302 0.0 0.0 0.00 0.00 0.00 38 993.0
20191018071735 57 347 0.0 0.0 0.00 0.00 0.00 34 992.8
20191018070054 57 311 0.0 0.0 0.00 0.00 0.00 33 992.5
20191018064645 56 284 0.0 0.0 0.00 0.00 0.00 34 992.1
20191018063118 56 275 0.0 0.0 0.00 0.00 0.00 33 991.9
20191018061633 57 267 0.0 0.0 0.00 0.00 0.00 32 991.8
20191018060108 57 295 0.0 0.0 0.00 0.00 0.00 32 991.6
20191018054614 57 221 0.0 0.0 0.00 0.00 0.00 31 991.3
20191018053159 56 204 0.0 2.0 0.00 0.00 0.00 33 991.4
20191018051707 56 200 0.0 0.0 0.00 0.00 0.00 33 991.6
20191018050146 55 207 0.0 0.0 0.00 0.00 0.00 34 991.7
20191018044607 55 209 0.0 0.0 0.00 0.00 0.00 35 991.9
20191018043043 53 196 0.0 0.0 0.00 0.00 0.00 38 992.1
20191018041655 53 177 0.0 0.0 0.00 0.00 0.00 37 992.2
20191018040109 56 218 0.0 0.0 0.00 0.00 0.00 33 992.2
20191018034615 56 262 0.0 0.0 0.00 0.00 0.00 33 992.2
20191018033112 56 194 0.0 0.0 0.00 0.00 0.00 32 992.2
20191018031608 58 323 0.0 0.0 0.00 0.00 0.00 30 992.4
20191018030023 59 224 0.0 0.0 0.00 0.00 0.00 28 992.3
20191018023121 59 209 0.0 0.0 0.00 0.00 0.00 28 992.2
20191018021528 61 223 0.0 0.0 0.00 0.00 0.00 27 992.3
20191018020037 61 222 0.0 0.0 0.00 0.00 0.00 27 992.4
20191018014527 61 223 0.0 0.0 0.00 0.00 0.00 27 992.5
20191018013102 62 225 0.0 0.0 0.00 0.00 0.00 25 992.5
20191018011527 63 231 0.0 0.0 0.00 0.00 0.00 24 992.4
20191018010037 63 244 0.0 0.0 0.00 0.00 0.00 24 992.6
20191018004539 63 223 0.0 1.0 0.00 0.00 0.00 23 992.5
20191018003033 65 228 0.0 0.0 0.00 0.00 0.00 22 992.5
20191018001632 66 215 0.0 0.0 0.00 0.00 0.00 21 992.4
20191018000038 69 217 0.0 0.0 0.00 0.00 0.00 18 992.3
20191017234530 69 236 0.0 0.0 0.00 0.00 0.00 17 992.2
20191017233042 70 241 0.0 0.0 0.00 0.00 0.00 17 992.4
20191017231530 71 259 0.0 0.0 0.00 0.00 0.00 16 992.3
20191017230015 71 240 0.0 1.0 0.00 0.00 0.00 15 992.3
20191017224557 70 238 0.0 0.0 0.00 0.00 0.00 18 992.3
20191017223026 70 216 0.0 0.0 0.00 0.00 0.00 18 992.4
20191017221541 70 205 0.0 0.0 0.00 0.00 0.00 18 992.5
20191017214507 70 207 0.0 1.0 0.00 0.00 0.00 17 993.0
20191017213003 71 207 0.0 0.0 0.00 0.00 0.00 16 993.2
20191017210242 71 180 0.0 0.0 0.00 0.00 0.00 16 993.6
20191017204713 71 213 0.0 0.0 0.00 0.00 0.00 15 993.5
20191017203144 71 238 0.0 0.0 0.00 0.00 0.00 15 993.5
20191017201651 72 225 0.0 1.0 0.00 0.00 0.00 14 993.7
20191017200110 71 242 0.0 1.0 0.00 0.00 0.00 14 994.0
20191017194631 70 233 0.0 1.0 0.00 0.00 0.00 14 994.3
20191017193100 69 218 0.0 0.0 0.00 0.00 0.00 15 995.0
20191017191617 70 210 0.0 0.0 0.00 0.00 0.00 14 995.2
20191017190123 70 222 0.0 0.0 0.00 0.00 0.00 15 995.7
20191017184605 70 217 0.0 0.0 0.00 0.00 0.00 14 996.0
20191017183159 69 227 0.0 1.0 0.00 0.00 0.00 14 996.4
20191017181606 70 221 0.0 0.0 0.00 0.00 0.00 14 996.8
20191017180116 71 219 0.0 1.0 0.00 0.00 0.00 13 997.0
20191017174601 70 229 0.0 0.0 0.00 0.00 0.00 14 997.0
20191017173124 71 204 0.0 0.0 0.00 0.00 0.00 14 997.3
20191017171538 70 215 0.0 1.0 0.00 0.00 0.00 16 997.4
20191017170047 69 218 0.0 0.0 0.00 0.00 0.00 16 997.8
20191017164525 67 230 0.0 0.0 0.00 0.00 0.00 17 998.0
20191017163023 66 224 0.0 1.0 0.00 0.00 0.00 19 998.4
20191017161516 64 205 0.0 0.0 0.00 0.00 0.00 21 998.7
20191017160045 61 217 0.0 0.0 0.00 0.00 0.00 28 998.8
20191017153003 57 198 0.0 1.0 0.00 0.00 0.00 30 999.0
20191017151643 57 175 0.0 0.0 0.00 0.00 0.00 29 999.2
20191017150133 57 205 0.0 8.0 0.00 0.00 0.00 28 999.3
20191017144631 55 217 0.0 1.0 0.00 0.00 0.00 28 999.5
20191017143111 55 213 0.0 0.0 0.00 0.00 0.00 28 999.6
20191017141657 55 202 0.0 1.0 0.00 0.00 0.00 30 999.7
20191017140114 51 202 0.0 0.0 0.00 0.00 0.00 34 999.7
20191017134618 51 196 0.0 0.0 0.00 0.00 0.00 34 1000.0
20191017133218 50 196 0.0 5.0 0.00 0.00 0.00 37 1000.1
20191017131652 49 194 0.0 1.0 0.00 0.00 0.00 38 1000.1
20191017130123 49 186 0.0 0.0 0.00 0.00 0.00 38 1000.3
20191017124647 49 211 0.0 1.0 0.00 0.00 0.00 39 1000.4
20191017123106 50 197 0.0 0.0 0.00 0.00 0.00 36 1000.5
20191017121602 47 204 0.0 4.0 0.00 0.00 0.00 43 1000.7
20191017120040 50 165 0.0 0.0 0.00 0.00 0.00 37 1001.2
20191017114626 48 189 0.0 0.0 0.00 0.00 0.00 41 1001.3
20191017113157 46 194 0.0 0.0 0.00 0.00 0.00 45 1001.5
20191017111611 45 217 0.0 0.0 0.00 0.00 0.00 48 1001.7